Time;durP1;ratioP1;P1;durP2;ratioP2;P2;SDS_P1;SDS_P2;PMS_P1;PMS_P2;Temp;Humidity;BMP_temperature;BMP_pressure;BME280_temperature;BME280_humidity;BME280_pressure;Samples;Min_cycle;Max_cycle;Signal;HPM_P1;HPM_P2
2022/08/17 00:00:21;;;;;;;9.60;8.27;;;16.40;99.90;;;;;;5073855;28;20196;-78
2022/08/17 00:03:03;;;;;;;9.75;8.27;;;16.60;99.90;;;;;;5073703;28;20204;-77
2022/08/17 00:05:33;;;;;;;10.35;8.18;;;16.60;99.90;;;;;;5073405;28;20736;-77
2022/08/17 00:08:01;;;;;;;8.98;8.18;;;16.70;99.90;;;;;;5073365;28;20247;-77
2022/08/17 00:10:28;;;;;;;9.70;8.80;;;16.50;99.90;;;;;;5073165;28;20220;-76
2022/08/17 00:12:55;;;;;;;8.57;7.80;;;16.50;99.90;;;;;;5073411;28;20196;-77
2022/08/17 00:15:22;;;;;;;9.73;7.93;;;16.40;99.90;;;;;;5073331;28;20201;-77
2022/08/17 00:17:51;;;;;;;8.97;7.97;;;16.40;99.90;;;;;;5073254;28;20197;-77
2022/08/17 00:20:18;;;;;;;8.80;7.93;;;16.30;99.90;;;;;;5073479;28;20197;-77
2022/08/17 00:22:45;;;;;;;9.65;8.57;;;16.40;99.90;;;;;;5073062;28;20251;-76
2022/08/17 00:25:16;;;;;;;8.73;7.83;;;16.40;99.90;;;;;;5072934;28;20624;-76
2022/08/17 00:27:43;;;;;;;9.20;7.73;;;16.20;99.90;;;;;;5073266;28;20259;-76
2022/08/17 00:30:11;;;;;;;10.65;7.93;;;16.40;99.90;;;;;;5073047;28;20220;-76
2022/08/17 00:32:39;;;;;;;9.40;8.37;;;16.50;99.90;;;;;;5073097;28;20247;-78
2022/08/17 00:35:08;;;;;;;9.05;7.80;;;16.50;99.90;;;;;;5072826;28;20595;-78
2022/08/17 00:37:35;;;;;;;9.05;8.15;;;16.40;99.90;;;;;;5072795;28;20553;-79
2022/08/17 00:40:02;;;;;;;8.40;7.43;;;16.20;99.90;;;;;;5073012;28;20205;-78
2022/08/17 00:42:30;;;;;;;10.10;7.97;;;16.40;99.90;;;;;;5072748;28;20225;-76
2022/08/17 00:44:56;;;;;;;8.48;7.68;;;16.30;99.90;;;;;;5072853;28;20254;-78
2022/08/17 00:47:23;;;;;;;8.87;8.00;;;16.20;99.90;;;;;;5072211;28;20201;-78
2022/08/17 00:49:50;;;;;;;8.43;7.70;;;16.20;99.90;;;;;;5072648;28;20224;-77
2022/08/17 00:52:20;;;;;;;9.63;8.63;;;16.10;99.90;;;;;;5072642;28;20201;-78
2022/08/17 00:54:51;;;;;;;9.60;8.63;;;16.20;99.90;;;;;;5073011;28;20197;-78
2022/08/17 00:57:20;;;;;;;9.13;8.23;;;16.20;99.90;;;;;;5072793;28;20197;-78
2022/08/17 00:59:52;;;;;;;8.63;7.77;;;16.30;99.90;;;;;;5072663;28;20197;-78
2022/08/17 01:02:19;;;;;;;9.43;8.50;;;16.10;99.90;;;;;;5072650;28;20448;-78
2022/08/17 01:04:49;;;;;;;10.23;8.37;;;16.00;99.90;;;;;;5072584;28;20207;-77
2022/08/17 01:07:17;;;;;;;10.47;8.60;;;16.00;99.90;;;;;;5072947;28;20194;-77
2022/08/17 01:09:44;;;;;;;10.30;9.33;;;15.90;99.90;;;;;;5072324;28;20777;-77
2022/08/17 01:12:12;;;;;;;10.00;8.93;;;16.00;99.90;;;;;;5072645;28;20193;-77
2022/08/17 01:14:39;;;;;;;10.73;8.40;;;16.00;99.90;;;;;;5072552;28;20250;-78
2022/08/17 01:17:09;;;;;;;10.53;9.43;;;15.80;99.90;;;;;;5072431;28;20596;-77
2022/08/17 01:19:38;;;;;;;9.37;8.47;;;15.70;99.90;;;;;;5072628;28;20200;-78
2022/08/17 01:22:16;;;;;;;9.83;8.53;;;15.70;99.90;;;;;;5072836;28;20208;-78
2022/08/17 01:24:46;;;;;;;10.43;9.33;;;15.90;99.90;;;;;;5073375;28;20391;-78
2022/08/17 01:27:16;;;;;;;11.77;9.07;;;16.00;99.90;;;;;;5073009;28;20239;-78
2022/08/17 01:29:46;;;;;;;10.93;8.60;;;16.10;99.90;;;;;;5072853;28;20201;-78
2022/08/17 01:32:14;;;;;;;12.63;8.80;;;16.00;99.90;;;;;;5072951;28;20205;-78
2022/08/17 01:34:41;;;;;;;10.13;9.13;;;15.80;99.90;;;;;;5072579;28;20204;-77
2022/08/17 01:37:08;;;;;;;12.00;8.97;;;15.70;99.90;;;;;;5072657;28;20225;-78
2022/08/17 01:39:41;;;;;;;9.63;8.70;;;15.60;99.90;;;;;;5072593;28;20197;-78
2022/08/17 01:42:12;;;;;;;12.53;9.40;;;15.40;99.90;;;;;;5072490;28;20241;-77
2022/08/17 01:44:39;;;;;;;9.40;8.50;;;15.40;99.90;;;;;;5072790;28;20197;-77
2022/08/17 01:47:06;;;;;;;11.23;9.20;;;15.50;99.90;;;;;;5073012;28;20246;-78
2022/08/17 01:49:33;;;;;;;9.50;8.53;;;15.30;99.90;;;;;;5072905;28;20714;-78
2022/08/17 01:52:06;;;;;;;10.47;9.47;;;15.30;99.90;;;;;;5072798;28;20205;-77
2022/08/17 01:54:33;;;;;;;10.77;9.10;;;15.40;99.90;;;;;;5072940;28;20197;-78
2022/08/17 01:57:00;;;;;;;9.43;8.57;;;15.50;99.90;;;;;;5072377;28;20648;-78
2022/08/17 01:59:27;;;;;;;10.53;8.30;;;15.40;99.90;;;;;;5075472;28;20227;-77
2022/08/17 02:01:54;;;;;;;9.73;8.77;;;15.30;99.90;;;;;;5075921;28;20250;-77
2022/08/17 02:04:20;;;;;;;10.27;8.63;;;15.40;99.90;;;;;;5075777;28;20205;-77
2022/08/17 02:06:47;;;;;;;10.67;9.57;;;15.50;99.90;;;;;;5075757;28;20267;-77
2022/08/17 02:09:14;;;;;;;10.70;9.37;;;15.30;99.90;;;;;;5075400;28;20197;-77
2022/08/17 02:11:41;;;;;;;14.37;10.67;;;15.20;99.90;;;;;;5075686;28;20244;-77
2022/08/17 02:14:10;;;;;;;14.30;9.70;;;15.10;99.90;;;;;;5075696;28;20200;-77
2022/08/17 02:16:39;;;;;;;11.70;10.50;;;14.90;99.90;;;;;;5075727;28;20633;-77
2022/08/17 02:19:09;;;;;;;11.90;9.83;;;14.90;99.90;;;;;;5075622;28;20200;-78
2022/08/17 02:21:36;;;;;;;11.07;9.87;;;14.80;99.90;;;;;;5075258;28;20201;-77
2022/08/17 02:24:06;;;;;;;11.83;10.63;;;14.70;99.90;;;;;;5075385;28;20625;-77
2022/08/17 02:26:33;;;;;;;11.17;10.03;;;14.70;99.90;;;;;;5075513;28;20193;-77
2022/08/17 02:29:00;;;;;;;12.10;11.00;;;14.70;99.90;;;;;;5075488;28;20197;-78
2022/08/17 02:31:28;;;;;;;11.37;10.20;;;14.70;99.90;;;;;;5075069;28;20228;-78
2022/08/17 02:33:55;;;;;;;15.10;9.93;;;14.60;99.90;;;;;;5075241;28;20287;-78
2022/08/17 02:36:22;;;;;;;11.50;10.30;;;14.60;99.90;;;;;;5075085;28;20656;-78
2022/08/17 02:38:49;;;;;;;12.20;10.90;;;14.50;99.90;;;;;;5075084;28;20561;-78
2022/08/17 02:41:16;;;;;;;12.43;10.93;;;14.60;99.90;;;;;;5075137;28;20251;-78
2022/08/17 02:43:42;;;;;;;15.67;11.60;;;14.60;99.90;;;;;;5074905;28;20229;-78
2022/08/17 02:46:11;;;;;;;12.17;11.00;;;14.60;99.90;;;;;;5075043;28;20219;-78
2022/08/17 02:48:39;;;;;;;12.67;11.37;;;14.60;99.90;;;;;;5074844;28;20224;-78
2022/08/17 02:51:06;;;;;;;12.77;11.57;;;14.50;99.90;;;;;;5075043;28;20229;-78
2022/08/17 02:53:32;;;;;;;13.00;11.60;;;14.50;99.90;;;;;;5074970;28;20201;-78
2022/08/17 02:55:59;;;;;;;15.03;11.73;;;14.50;99.90;;;;;;5074961;28;20254;-78
2022/08/17 02:58:26;;;;;;;13.33;10.93;;;14.50;99.90;;;;;;5074769;28;20657;-78
2022/08/17 03:00:52;;;;;;;12.37;11.17;;;14.40;99.90;;;;;;5074673;28;20201;-77
2022/08/17 03:03:19;;;;;;;13.33;11.10;;;14.40;99.90;;;;;;5074618;28;20235;-77
2022/08/17 03:05:50;;;;;;;13.17;10.90;;;14.50;99.90;;;;;;5074707;28;20205;-78
2022/08/17 03:08:17;;;;;;;15.53;11.60;;;14.50;99.90;;;;;;5074595;28;20679;-77
2022/08/17 03:10:44;;;;;;;12.90;11.50;;;14.50;99.90;;;;;;5074062;28;20272;-77
2022/08/17 03:13:13;;;;;;;13.23;11.83;;;14.50;99.90;;;;;;5074574;28;20199;-77
2022/08/17 03:15:43;;;;;;;11.83;10.73;;;14.40;99.90;;;;;;5074452;28;20272;-77
2022/08/17 03:18:11;;;;;;;13.30;10.67;;;14.40;99.90;;;;;;5074315;28;20558;-77
2022/08/17 03:20:37;;;;;;;12.20;10.87;;;14.70;99.90;;;;;;5074516;28;20278;-77
2022/08/17 03:23:06;;;;;;;14.03;10.50;;;14.80;99.90;;;;;;5074112;28;20730;-77
2022/08/17 03:25:35;;;;;;;13.07;11.03;;;14.90;99.90;;;;;;5074265;28;20193;-77
2022/08/17 03:28:01;;;;;;;11.07;9.97;;;14.90;99.90;;;;;;5074262;28;20262;-77
2022/08/17 03:30:29;;;;;;;11.80;10.50;;;14.70;99.90;;;;;;5073962;28;20216;-77
2022/08/17 03:32:58;;;;;;;13.47;10.43;;;14.60;99.90;;;;;;5073968;28;20671;-77
2022/08/17 03:35:28;;;;;;;10.87;9.73;;;14.60;99.90;;;;;;5074011;28;20664;-77
2022/08/17 03:37:55;;;;;;;14.30;11.40;;;14.50;99.90;;;;;;5074001;28;20246;-77
2022/08/17 03:40:24;;;;;;;12.50;10.67;;;14.70;99.90;;;;;;5073949;28;20201;-78
2022/08/17 03:42:52;;;;;;;11.90;10.67;;;14.80;99.90;;;;;;5073693;28;20294;-77
2022/08/17 03:56:41;;;;;;;10.53;9.53;;;14.70;99.90;;;;;;5074120;28;20270;-77
2022/08/17 03:56:42;;;;;;;12.40;11.10;;;14.50;99.90;;;;;;5073689;28;20277;-77
2022/08/17 03:59:09;;;;;;;12.30;11.07;;;14.30;99.90;;;;;;5073679;28;20202;-77
2022/08/17 04:01:36;;;;;;;12.77;11.53;;;14.30;99.90;;;;;;5073473;28;20648;-77
2022/08/17 04:04:03;;;;;;;12.40;11.10;;;14.20;99.90;;;;;;5073396;28;20197;-77
2022/08/17 04:06:29;;;;;;;11.97;10.87;;;14.30;99.90;;;;;;5073275;28;20197;-76
2022/08/17 04:08:56;;;;;;;13.77;11.20;;;14.30;99.90;;;;;;5073479;28;20251;-76
2022/08/17 04:11:23;;;;;;;13.60;11.83;;;14.20;99.90;;;;;;5073229;28;20228;-78
2022/08/17 04:13:51;;;;;;;14.00;11.40;;;14.10;99.90;;;;;;5073264;28;20201;-78
2022/08/17 04:16:18;;;;;;;13.17;11.93;;;14.10;99.90;;;;;;5073245;28;20564;-78
2022/08/17 04:18:44;;;;;;;12.50;11.30;;;14.20;99.90;;;;;;5073452;28;20429;-78
2022/08/17 04:21:11;;;;;;;12.77;11.23;;;14.20;99.90;;;;;;5072649;28;20201;-78
2022/08/17 04:23:37;;;;;;;12.33;11.03;;;14.20;99.90;;;;;;5073001;28;20197;-78
2022/08/17 04:26:04;;;;;;;12.27;11.20;;;14.20;99.90;;;;;;5073044;28;20201;-77
2022/08/17 04:28:31;;;;;;;14.00;11.67;;;14.20;99.90;;;;;;5073048;28;20201;-78
2022/08/17 04:30:59;;;;;;;12.93;11.23;;;14.40;99.90;;;;;;5072886;28;20217;-77
2022/08/17 04:33:27;;;;;;;15.33;11.70;;;14.50;99.90;;;;;;5073194;28;20607;-77
2022/08/17 04:35:57;;;;;;;12.73;11.43;;;14.50;99.90;;;;;;5073223;28;20205;-77
2022/08/17 04:38:25;;;;;;;12.57;10.67;;;14.60;99.90;;;;;;5072829;28;20714;-77
2022/08/17 04:43:39;;;;;;;12.77;10.83;;;14.70;99.90;;;;;;5072762;28;20235;-77
2022/08/17 04:46:09;;;;;;;11.23;10.00;;;14.70;99.90;;;;;;5074014;28;20192;-79
2022/08/17 04:48:38;;;;;;;12.70;11.40;;;14.70;99.90;;;;;;5072805;28;20663;-77
2022/08/17 04:51:08;;;;;;;13.87;10.80;;;14.80;99.90;;;;;;5072702;28;20311;-77
2022/08/17 04:53:35;;;;;;;12.80;11.50;;;14.90;99.90;;;;;;5072770;28;20216;-76
2022/08/17 04:56:01;;;;;;;12.90;11.30;;;14.90;99.90;;;;;;5072693;28;20714;-76
2022/08/17 04:58:28;;;;;;;12.57;11.27;;;14.90;99.90;;;;;;5072861;28;20193;-77
2022/08/17 05:00:55;;;;;;;12.37;11.07;;;15.00;99.90;;;;;;5072551;28;20204;-76
2022/08/17 05:03:23;;;;;;;11.60;10.50;;;15.10;99.90;;;;;;5072593;28;20197;-77
2022/08/17 05:05:50;;;;;;;14.90;10.53;;;15.30;99.90;;;;;;5072636;28;20292;-77
2022/08/17 05:08:18;;;;;;;12.00;10.80;;;15.40;99.90;;;;;;5072467;28;20560;-77
2022/08/17 05:10:46;;;;;;;12.77;10.77;;;15.50;99.90;;;;;;5072432;28;20230;-76
2022/08/17 05:13:15;;;;;;;13.00;10.70;;;15.60;99.90;;;;;;5072617;28;20193;-77
2022/08/17 05:15:43;;;;;;;12.27;10.73;;;15.80;99.90;;;;;;5072659;28;20564;-77
2022/08/17 05:18:10;;;;;;;12.13;10.90;;;15.90;99.90;;;;;;5072504;28;20223;-77
2022/08/17 05:20:40;;;;;;;11.90;10.60;;;16.00;99.90;;;;;;5072416;28;20205;-77
2022/08/17 05:23:08;;;;;;;12.33;11.07;;;16.20;99.90;;;;;;5072292;28;20197;-77
2022/08/17 05:25:38;;;;;;;11.93;10.67;;;16.20;99.90;;;;;;5072602;28;20201;-77
2022/08/17 05:28:05;;;;;;;12.70;10.97;;;16.30;99.90;;;;;;5072302;28;20207;-77
2022/08/17 05:30:33;;;;;;;13.07;10.47;;;16.40;99.90;;;;;;5072417;28;20201;-78
2022/08/17 05:33:02;;;;;;;11.80;10.60;;;16.50;99.90;;;;;;5073196;28;20311;-78
2022/08/17 05:35:31;;;;;;;11.43;10.32;;;16.60;99.90;;;;;;5076096;28;20648;-78
2022/08/17 05:38:00;;;;;;;11.98;10.88;;;16.60;99.90;;;;;;5076384;28;20200;-78
2022/08/17 05:40:27;;;;;;;11.45;10.27;;;16.60;99.90;;;;;;5076112;28;20197;-78
2022/08/17 05:43:05;;;;;;;11.02;9.70;;;16.60;99.90;;;;;;5076071;28;20228;-78
2022/08/17 05:45:32;;;;;;;11.05;9.82;;;16.60;99.90;;;;;;5076003;28;20242;-78
2022/08/17 05:47:59;;;;;;;11.93;10.73;;;16.60;99.90;;;;;;5076035;28;20243;-77
2022/08/17 05:50:36;;;;;;;15.55;10.82;;;16.60;99.90;;;;;;5075814;28;20197;-78
2022/08/17 05:53:11;;;;;;;11.35;10.27;;;16.60;99.90;;;;;;5076026;28;20220;-78
2022/08/17 05:55:45;;;;;;;13.02;10.00;;;16.50;99.90;;;;;;5075844;28;20200;-78
2022/08/17 05:58:22;;;;;;;12.82;10.23;;;16.60;99.90;;;;;;5075802;28;20193;-78
2022/08/17 06:00:58;;;;;;;11.75;10.52;;;16.60;99.90;;;;;;5075959;28;20223;-78
2022/08/17 06:03:39;;;;;;;13.18;11.00;;;16.60;99.90;;;;;;5075813;28;20197;-77
2022/08/17 06:06:17;;;;;;;15.05;11.55;;;16.70;99.90;;;;;;5075697;28;20208;-78
2022/08/17 06:08:53;;;;;;;14.48;11.00;;;16.70;99.90;;;;;;5075935;28;20722;-78
2022/08/17 06:11:25;;;;;;;14.73;12.15;;;16.70;99.90;;;;;;5075681;28;20749;-77
2022/08/17 06:14:03;;;;;;;16.40;11.38;;;16.70;99.90;;;;;;5075955;28;20197;-77
2022/08/17 06:16:35;;;;;;;14.18;11.70;;;16.80;99.90;;;;;;5075755;28;20200;-77
2022/08/17 06:19:06;;;;;;;14.43;11.05;;;16.90;99.90;;;;;;5075693;28;20224;-77
2022/08/17 06:21:35;;;;;;;12.43;11.23;;;17.00;99.90;;;;;;5076102;28;20304;-77
2022/08/17 06:24:10;;;;;;;12.57;11.32;;;17.20;99.90;;;;;;5075760;28;20205;-77
2022/08/17 06:26:40;;;;;;;13.73;11.45;;;17.40;99.90;;;;;;5075571;28;20196;-78
2022/08/17 06:29:32;;;;;;;13.13;11.00;;;17.70;99.90;;;;;;5075997;28;20243;-78
2022/08/17 06:31:59;;;;;;;12.68;11.48;;;17.90;99.90;;;;;;5075467;28;20229;-78
2022/08/17 06:34:26;;;;;;;15.02;11.18;;;18.00;99.90;;;;;;5075544;28;20208;-78
2022/08/17 06:37:01;;;;;;;13.98;11.43;;;18.20;99.90;;;;;;5075274;28;20201;-78
2022/08/17 06:39:39;;;;;;;15.82;12.73;;;18.40;99.90;;;;;;5075224;28;20204;-78
2022/08/17 06:42:21;;;;;;;13.30;11.38;;;18.60;99.90;;;;;;5075039;28;20201;-78
2022/08/17 06:44:51;;;;;;;14.30;11.27;;;18.70;99.90;;;;;;5074576;28;20200;-78
2022/08/17 06:47:25;;;;;;;14.55;10.48;;;18.80;99.90;;;;;;5075515;28;20270;-78
2022/08/17 06:50:00;;;;;;;17.58;10.65;;;19.10;99.90;;;;;;5075526;28;20196;-78
2022/08/17 06:52:33;;;;;;;11.25;10.02;;;19.20;99.90;;;;;;5075145;28;20294;-78
2022/08/17 06:55:05;;;;;;;11.38;10.20;;;19.40;99.90;;;;;;5075438;28;20201;-79
2022/08/17 06:57:33;;;;;;;11.05;9.98;;;19.50;99.90;;;;;;5075137;28;20197;-78
2022/08/17 07:00:06;;;;;;;11.18;10.07;;;19.60;99.90;;;;;;5075177;28;20201;-78
2022/08/17 07:02:45;;;;;;;15.50;10.88;;;19.80;99.90;;;;;;5075247;28;20280;-76
2022/08/17 07:05:13;;;;;;;11.35;9.93;;;20.00;99.90;;;;;;5075091;28;20293;-79
2022/08/17 07:08:02;;;;;;;12.38;9.23;;;20.30;99.90;;;;;;5075010;28;20652;-79
2022/08/17 07:10:36;;;;;;;14.63;8.57;;;20.40;99.90;;;;;;5074900;28;20660;-76
2022/08/17 07:13:24;;;;;;;9.70;8.15;;;20.70;99.90;;;;;;5074565;28;20703;-78
2022/08/17 07:15:55;;;;;;;12.02;8.77;;;21.00;99.90;;;;;;5074575;28;20197;-78
2022/08/17 07:18:25;;;;;;;12.93;8.65;;;21.20;99.90;;;;;;5074524;28;20656;-78
2022/08/17 07:20:56;;;;;;;11.85;8.57;;;21.40;99.90;;;;;;5074479;28;20718;-78
2022/08/17 07:23:37;;;;;;;10.23;9.13;;;21.70;99.90;;;;;;5074546;28;20205;-78
2022/08/17 07:26:06;;;;;;;13.02;9.00;;;22.00;99.90;;;;;;5074688;28;20182;-78
2022/08/17 07:28:34;;;;;;;12.88;9.02;;;22.30;99.90;;;;;;5074700;28;20270;-78
2022/08/17 07:31:03;;;;;;;11.88;9.40;;;22.50;99.90;;;;;;5074406;28;20205;-78
2022/08/17 07:33:33;;;;;;;10.63;9.43;;;22.70;99.90;;;;;;5074289;28;20232;-78
2022/08/17 07:36:00;;;;;;;16.15;9.05;;;22.80;99.90;;;;;;5074282;28;20250;-78
2022/08/17 07:38:29;;;;;;;8.65;7.82;;;23.00;99.90;;;;;;5074110;28;20228;-77
2022/08/17 07:41:04;;;;;;;8.70;6.70;;;23.20;99.90;;;;;;5074193;28;20318;-77
2022/08/17 07:43:36;;;;;;;6.68;6.05;;;23.30;99.90;;;;;;5073665;28;20224;-77
2022/08/17 07:49:33;;;;;;;6.93;5.82;;;23.80;99.90;;;;;;5073898;28;20308;-77
2022/08/17 07:52:03;;;;;;;6.47;5.43;;;24.00;99.90;;;;;;5073645;28;20217;-77
2022/08/17 07:54:34;;;;;;;7.53;5.15;;;24.30;99.90;;;;;;5073515;28;20201;-77
2022/08/17 07:57:26;;;;;;;8.73;5.72;;;24.60;99.90;;;;;;5073519;28;20193;-77
2022/08/17 08:00:15;;;;;;;9.60;4.95;;;24.80;99.90;;;;;;5073895;28;20235;-76
2022/08/17 08:02:45;;;;;;;6.78;5.20;;;25.10;99.90;;;;;;5073779;28;20250;-76
2022/08/17 08:05:19;;;;;;;8.85;5.13;;;25.40;99.90;;;;;;5073681;28;20235;-77
2022/08/17 08:07:53;;;;;;;6.50;5.10;;;25.80;99.40;;;;;;5073756;28;20192;-77
2022/08/17 08:10:29;;;;;;;6.97;4.90;;;26.10;98.30;;;;;;5073621;28;20201;-76
2022/08/17 08:13:09;;;;;;;6.13;4.55;;;26.40;97.10;;;;;;5073413;28;20692;-78
2022/08/17 08:15:41;;;;;;;7.32;4.68;;;26.60;94.70;;;;;;5073876;28;20599;-78
2022/08/17 08:18:21;;;;;;;5.05;4.43;;;26.60;94.30;;;;;;5073503;28;20192;-78
2022/08/17 08:20:51;;;;;;;7.88;5.07;;;26.50;94.10;;;;;;5073488;28;20251;-78
2022/08/17 08:23:32;;;;;;;10.15;4.65;;;26.60;92.70;;;;;;5073282;28;20197;-78
2022/08/17 08:26:12;;;;;;;7.32;4.30;;;26.90;92.50;;;;;;5073183;28;20204;-77
2022/08/17 08:28:45;;;;;;;6.95;4.40;;;27.40;91.80;;;;;;5073471;28;20235;-78
2022/08/17 08:31:24;;;;;;;7.03;4.82;;;27.80;90.30;;;;;;5073364;28;20227;-78
2022/08/17 08:34:07;;;;;;;6.72;4.47;;;28.20;87.90;;;;;;5073184;28;20314;-78
2022/08/17 08:36:45;;;;;;;7.10;4.45;;;28.50;84.80;;;;;;5073004;28;20197;-78
2022/08/17 08:39:20;;;;;;;5.45;4.78;;;28.60;81.70;;;;;;5073305;28;20220;-75
2022/08/17 08:41:55;;;;;;;5.32;4.40;;;28.50;81.70;;;;;;5073144;28;20277;-77
2022/08/17 08:44:36;;;;;;;6.25;4.80;;;28.70;78.40;;;;;;5033468;28;20201;-78
2022/08/17 08:47:16;;;;;;;5.30;4.68;;;28.70;77.10;;;;;;5033048;28;20253;-78
2022/08/17 08:49:59;;;;;;;6.95;4.22;;;28.80;76.40;;;;;;5033255;28;20202;-77
2022/08/17 08:52:51;;;;;;;4.82;4.28;;;28.70;74.30;;;;;;5033050;28;20218;-78
2022/08/17 08:55:24;;;;;;;4.70;4.30;;;28.90;71.00;;;;;;5032875;28;20194;-76
2022/08/17 08:57:59;;;;;;;5.18;4.00;;;29.30;71.30;;;;;;5033141;28;20200;-78
2022/08/17 09:00:28;;;;;;;6.75;3.85;;;29.70;68.80;;;;;;5033070;28;20206;-78
2022/08/17 09:03:36;;;;;;;5.65;4.63;;;29.30;66.00;;;;;;5032800;28;20650;-78
2022/08/17 09:06:11;;;;;;;4.35;3.95;;;29.60;65.40;;;;;;5012643;28;20198;-77
2022/08/17 09:08:55;;;;;;;6.43;4.10;;;30.20;64.50;;;;;;5032225;28;20600;-78
2022/08/17 09:11:34;;;;;;;5.88;3.85;;;30.70;61.50;;;;;;5032691;28;20204;-78
2022/08/17 09:14:10;;;;;;;5.85;4.15;;;31.10;59.20;;;;;;5032480;28;20697;-78
2022/08/17 09:16:43;;;;;;;3.78;3.45;;;31.60;57.90;;;;;;5032685;28;20604;-78
2022/08/17 09:19:18;;;;;;;3.97;3.63;;;31.80;55.50;;;;;;5032963;28;20198;-76
2022/08/17 09:21:53;;;;;;;7.70;3.67;;;32.20;53.00;;;;;;5032774;28;20229;-78
2022/08/17 09:24:26;;;;;;;7.93;4.40;;;32.40;52.00;;;;;;5032567;28;20206;-78
2022/08/17 09:27:00;;;;;;;6.45;4.03;;;32.70;50.70;;;;;;5032875;28;20198;-78
2022/08/17 09:29:33;;;;;;;5.93;3.88;;;32.70;48.80;;;;;;5032589;28;20247;-78
2022/08/17 09:32:04;;;;;;;5.15;3.83;;;32.70;47.60;;;;;;5032766;28;20209;-78
2022/08/17 09:34:37;;;;;;;7.15;4.07;;;32.50;47.30;;;;;;5032630;28;20237;-78
2022/08/17 09:37:17;;;;;;;4.15;3.70;;;33.10;46.40;;;;;;5032412;28;20286;-77
2022/08/17 09:39:51;;;;;;;8.05;3.80;;;32.70;44.40;;;;;;5032608;28;20202;-78
2022/08/17 09:42:25;;;;;;;5.93;3.75;;;32.70;43.90;;;;;;5040313;28;20225;-78
2022/08/17 09:44:56;;;;;;;6.40;3.33;;;32.40;43.30;;;;;;5072531;28;20201;-78
2022/08/17 09:47:30;;;;;;;3.85;3.20;;;32.20;42.00;;;;;;5072667;28;20302;-79
2022/08/17 09:50:03;;;;;;;4.00;3.35;;;32.90;41.90;;;;;;5073281;28;20228;-77
2022/08/17 09:52:31;;;;;;;5.45;3.60;;;33.30;40.70;;;;;;5073040;28;20221;-78
2022/08/17 09:54:59;;;;;;;5.63;3.63;;;32.70;39.10;;;;;;5072992;28;20204;-79
2022/08/17 09:57:51;;;;;;;4.45;3.50;;;33.30;38.90;;;;;;5074479;28;20291;-79
2022/08/17 10:00:22;;;;;;;5.80;3.50;;;34.40;37.40;;;;;;5072523;28;20242;-78
2022/08/17 10:03:01;;;;;;;4.53;3.90;;;34.50;35.50;;;;;;5072553;28;20288;-78
2022/08/17 10:05:36;;;;;;;5.03;3.55;;;34.80;34.00;;;;;;5072356;28;20204;-78
2022/08/17 10:08:09;;;;;;;7.43;3.75;;;34.50;33.40;;;;;;5072197;28;20200;-78
2022/08/17 10:10:41;;;;;;;3.75;3.35;;;34.40;33.60;;;;;;5072023;28;20200;-77
2022/08/17 10:13:18;;;;;;;5.07;3.55;;;34.70;33.00;;;;;;5072156;28;20284;-77
2022/08/17 10:15:53;;;;;;;3.63;3.33;;;35.10;31.30;;;;;;5072196;28;20200;-77
2022/08/17 10:18:30;;;;;;;3.72;3.40;;;36.00;31.60;;;;;;5072073;28;20200;-78
2022/08/17 10:26:40;;;;;;;5.57;3.53;;;36.00;28.80;;;;;;5075604;28;20564;-78
2022/08/17 10:29:16;;;;;;;3.50;3.05;;;37.20;28.40;;;;;;5075461;28;20197;-78
2022/08/17 10:31:47;;;;;;;5.60;3.80;;;37.80;27.60;;;;;;5075724;28;20196;-78
2022/08/17 10:34:36;;;;;;;3.50;3.20;;;37.50;27.00;;;;;;5075482;28;20225;-78
2022/08/17 10:37:18;;;;;;;6.10;3.60;;;36.10;27.80;;;;;;5075545;28;20192;-78
2022/08/17 10:39:52;;;;;;;7.80;3.55;;;36.40;27.80;;;;;;5075437;28;20204;-78
2022/08/17 10:42:24;;;;;;;4.45;3.40;;;35.40;27.50;;;;;;5075385;28;20314;-78
2022/08/17 10:44:55;;;;;;;5.20;3.50;;;36.30;27.50;;;;;;5075440;28;20201;-78
2022/08/17 10:47:25;;;;;;;4.97;3.45;;;36.50;26.60;;;;;;5075223;28;20204;-78
2022/08/17 10:49:54;;;;;;;3.72;3.25;;;36.30;26.60;;;;;;5075192;28;20201;-78
2022/08/17 10:52:48;;;;;;;7.65;3.40;;;36.00;26.60;;;;;;5075311;28;20200;-78
2022/08/17 10:55:19;;;;;;;4.93;3.67;;;36.40;26.30;;;;;;5075511;28;20201;-78
2022/08/17 10:57:48;;;;;;;6.57;3.60;;;36.20;26.30;;;;;;5075297;28;20728;-79
2022/08/17 11:01:11;;;;;;;4.57;3.13;;;35.60;26.70;;;;;;5074980;28;20203;-76
2022/08/17 11:03:51;;;;;;;4.68;3.30;;;36.70;25.80;;;;;;5074914;28;20200;-78
2022/08/17 11:06:25;;;;;;;3.88;3.10;;;37.30;25.30;;;;;;5074904;28;20756;-79
2022/08/17 11:09:17;;;;;;;5.32;3.40;;;38.10;24.80;;;;;;5074756;28;20196;-76
2022/08/17 11:12:14;;;;;;;4.40;3.10;;;37.50;24.20;;;;;;5074724;28;20201;-78
2022/08/17 11:15:03;;;;;;;4.35;3.55;;;37.40;24.60;;;;;;5074576;28;20228;-78
2022/08/17 11:17:50;;;;;;;3.78;3.40;;;37.70;24.10;;;;;;5074594;28;20678;-78
2022/08/17 11:20:40;;;;;;;5.95;3.65;;;36.90;23.70;;;;;;5074716;28;20226;-78
2022/08/17 11:23:24;;;;;;;3.50;3.20;;;36.10;24.20;;;;;;5074473;28;20196;-78
2022/08/17 11:25:54;;;;;;;4.97;3.83;;;35.70;24.40;;;;;;5074583;28;20245;-78
2022/08/17 11:28:26;;;;;;;4.32;3.50;;;35.40;24.30;;;;;;5074368;28;20647;-78
2022/08/17 11:30:57;;;;;;;5.90;3.55;;;34.60;24.20;;;;;;5073999;28;20193;-78
2022/08/17 11:33:51;;;;;;;4.80;3.85;;;34.60;24.80;;;;;;5074160;28;20622;-77
2022/08/17 11:36:30;;;;;;;4.00;3.60;;;34.60;25.20;;;;;;5074412;28;20204;-77
2022/08/17 11:39:02;;;;;;;5.32;3.40;;;34.30;25.70;;;;;;5074300;28;20219;-77
2022/08/17 11:41:39;;;;;;;5.38;3.42;;;34.20;24.70;;;;;;5074250;28;20249;-77
2022/08/17 11:44:27;;;;;;;5.63;3.47;;;33.90;24.70;;;;;;5073800;28;20228;-78
2022/08/17 11:52:50;;;;;;;6.10;3.88;;;32.50;25.30;;;;;;5073795;28;20211;-77
2022/08/17 11:55:50;;;;;;;5.50;3.65;;;31.60;26.30;;;;;;5073955;28;20201;-77
2022/08/17 11:58:36;;;;;;;8.15;3.85;;;31.40;27.00;;;;;;5073681;28;20288;-78
2022/08/17 12:01:04;;;;;;;4.93;4.10;;;31.20;26.80;;;;;;5073991;28;20197;-77
2022/08/17 12:03:55;;;;;;;5.65;3.85;;;31.10;27.00;;;;;;5073875;28;20250;-78
2022/08/17 12:06:45;;;;;;;4.57;3.95;;;31.30;26.90;;;;;;5073849;28;20208;-78
2022/08/17 12:09:17;;;;;;;4.38;3.90;;;31.50;26.80;;;;;;5073577;28;20200;-78
2022/08/17 12:11:49;;;;;;;4.32;3.70;;;31.20;26.60;;;;;;5073632;28;20201;-78
2022/08/17 12:14:24;;;;;;;7.10;4.38;;;31.30;26.80;;;;;;5073496;28;20228;-76
2022/08/17 12:17:03;;;;;;;4.32;3.85;;;31.60;26.50;;;;;;5073411;28;20200;-78
2022/08/17 12:19:32;;;;;;;4.60;4.00;;;31.90;26.50;;;;;;5073317;28;20200;-78
2022/08/17 12:22:06;;;;;;;7.40;3.95;;;32.10;26.40;;;;;;5073679;28;20193;-78
2022/08/17 12:24:46;;;;;;;6.50;3.75;;;32.30;26.00;;;;;;5073454;28;20200;-76
2022/08/17 12:27:21;;;;;;;4.45;3.67;;;32.00;26.20;;;;;;5073356;28;20200;-76
2022/08/17 12:29:49;;;;;;;14.10;4.10;;;32.20;26.10;;;;;;5073185;28;20200;-76
2022/08/17 12:32:18;;;;;;;8.20;3.90;;;32.30;25.50;;;;;;5073081;28;20200;-76
2022/08/17 12:34:47;;;;;;;7.43;3.65;;;32.40;25.90;;;;;;5073196;28;20312;-78
2022/08/17 12:37:17;;;;;;;4.03;3.63;;;32.30;25.70;;;;;;5073518;28;20247;-78
2022/08/17 12:39:51;;;;;;;9.23;3.95;;;32.40;25.60;;;;;;5073505;28;20193;-76
2022/08/17 12:42:23;;;;;;;6.68;3.92;;;32.70;25.50;;;;;;5072728;28;20260;-79
2022/08/17 12:44:51;;;;;;;4.22;3.65;;;33.10;25.50;;;;;;5073776;28;20197;-77
2022/08/17 12:47:19;;;;;;;5.72;4.03;;;32.90;25.00;;;;;;5073537;28;20659;-76
2022/08/17 12:49:47;;;;;;;4.20;3.80;;;32.70;25.20;;;;;;5073327;28;20197;-79
2022/08/17 12:52:17;;;;;;;4.65;4.25;;;32.70;25.40;;;;;;5072968;28;20595;-78
2022/08/17 12:54:51;;;;;;;7.35;4.20;;;32.40;25.40;;;;;;5072957;28;20224;-77
2022/08/17 12:57:21;;;;;;;4.78;4.15;;;31.60;28.20;;;;;;5072936;28;20722;-77
2022/08/17 12:59:53;;;;;;;9.10;4.35;;;31.70;29.90;;;;;;5072971;28;20258;-76
2022/08/17 13:02:31;;;;;;;10.27;4.43;;;31.50;30.80;;;;;;5072994;28;20200;-76
2022/08/17 13:05:00;;;;;;;9.13;4.47;;;31.80;30.80;;;;;;5072800;28;20211;-76
2022/08/17 13:07:34;;;;;;;10.18;4.80;;;31.70;30.40;;;;;;5072670;28;20200;-78
2022/08/17 13:10:01;;;;;;;7.90;4.95;;;31.20;31.70;;;;;;5073249;28;20201;-78
2022/08/17 13:12:34;;;;;;;5.10;4.55;;;30.60;32.20;;;;;;5072860;28;20196;-78
2022/08/17 13:15:02;;;;;;;8.05;4.45;;;30.30;32.60;;;;;;5072318;28;20557;-77
2022/08/17 13:17:34;;;;;;;6.00;4.57;;;30.00;33.20;;;;;;5072698;28;20228;-77
2022/08/17 13:20:01;;;;;;;11.55;4.60;;;30.10;33.60;;;;;;5073133;28;20211;-78
2022/08/17 13:22:31;;;;;;;9.50;4.50;;;30.00;33.30;;;;;;5072587;28;20683;-78
2022/08/17 13:25:02;;;;;;;6.38;4.40;;;30.40;32.60;;;;;;5072707;28;20247;-78
2022/08/17 13:27:31;;;;;;;4.90;4.43;;;30.90;32.20;;;;;;5072625;28;20207;-78
2022/08/17 13:30:00;;;;;;;9.77;4.63;;;31.10;31.60;;;;;;5072574;28;20204;-77